sensor_id;sensor_type;location;lat;lon;timestamp;P1;durP1;ratioP1;P2;durP2;ratioP2
79361;SDS011;68830;47.566;19.012;2023-06-26T00:02:31;4.80;;;4.13;;
79361;SDS011;68830;47.566;19.012;2023-06-26T00:05:34;4.28;;;3.88;;
79361;SDS011;68830;47.566;19.012;2023-06-26T00:08:36;5.05;;;4.50;;
79361;SDS011;68830;47.566;19.012;2023-06-26T00:11:38;6.20;;;5.03;;
79361;SDS011;68830;47.566;19.012;2023-06-26T00:14:40;4.80;;;4.38;;
79361;SDS011;68830;47.566;19.012;2023-06-26T00:17:43;8.63;;;4.25;;
79361;SDS011;68830;47.566;19.012;2023-06-26T00:20:47;4.55;;;4.15;;
79361;SDS011;68830;47.566;19.012;2023-06-26T00:23:49;6.43;;;4.30;;
79361;SDS011;68830;47.566;19.012;2023-06-26T00:26:51;4.55;;;4.15;;
79361;SDS011;68830;47.566;19.012;2023-06-26T00:29:53;9.60;;;4.45;;
79361;SDS011;68830;47.566;19.012;2023-06-26T00:32:56;4.60;;;3.97;;
79361;SDS011;68830;47.566;19.012;2023-06-26T00:35:59;6.05;;;4.72;;
79361;SDS011;68830;47.566;19.012;2023-06-26T00:39:01;5.47;;;4.95;;
79361;SDS011;68830;47.566;19.012;2023-06-26T00:42:05;5.25;;;4.75;;
79361;SDS011;68830;47.566;19.012;2023-06-26T00:45:10;5.88;;;4.95;;
79361;SDS011;68830;47.566;19.012;2023-06-26T00:48:13;6.68;;;5.35;;
79361;SDS011;68830;47.566;19.012;2023-06-26T00:51:15;5.53;;;4.97;;
79361;SDS011;68830;47.566;19.012;2023-06-26T00:54:17;4.63;;;4.18;;
79361;SDS011;68830;47.566;19.012;2023-06-26T00:57:22;5.50;;;4.28;;
79361;SDS011;68830;47.566;19.012;2023-06-26T01:00:24;6.25;;;4.60;;
79361;SDS011;68830;47.566;19.012;2023-06-26T01:03:27;4.93;;;4.53;;
79361;SDS011;68830;47.566;19.012;2023-06-26T01:06:30;5.18;;;4.68;;
79361;SDS011;68830;47.566;19.012;2023-06-26T01:09:36;6.57;;;4.85;;
79361;SDS011;68830;47.566;19.012;2023-06-26T01:12:39;5.32;;;4.82;;
79361;SDS011;68830;47.566;19.012;2023-06-26T01:15:41;5.05;;;4.40;;
79361;SDS011;68830;47.566;19.012;2023-06-26T01:18:44;6.35;;;4.65;;
79361;SDS011;68830;47.566;19.012;2023-06-26T01:21:47;5.85;;;5.35;;
79361;SDS011;68830;47.566;19.012;2023-06-26T01:24:54;5.15;;;4.65;;
79361;SDS011;68830;47.566;19.012;2023-06-26T01:28:04;5.43;;;4.78;;
79361;SDS011;68830;47.566;19.012;2023-06-26T01:31:08;5.53;;;4.97;;
79361;SDS011;68830;47.566;19.012;2023-06-26T01:34:12;5.22;;;4.72;;
79361;SDS011;68830;47.566;19.012;2023-06-26T01:37:14;5.72;;;5.15;;
79361;SDS011;68830;47.566;19.012;2023-06-26T01:40:16;5.32;;;4.82;;
79361;SDS011;68830;47.566;19.012;2023-06-26T01:43:20;5.38;;;4.88;;
79361;SDS011;68830;47.566;19.012;2023-06-26T01:46:29;5.22;;;4.72;;
79361;SDS011;68830;47.566;19.012;2023-06-26T01:49:43;5.78;;;5.20;;
79361;SDS011;68830;47.566;19.012;2023-06-26T01:52:52;4.90;;;4.43;;
79361;SDS011;68830;47.566;19.012;2023-06-26T01:56:01;6.55;;;5.38;;
79361;SDS011;68830;47.566;19.012;2023-06-26T01:59:10;6.15;;;5.65;;
79361;SDS011;68830;47.566;19.012;2023-06-26T02:02:15;5.13;;;4.63;;
79361;SDS011;68830;47.566;19.012;2023-06-26T02:05:18;5.75;;;5.25;;
79361;SDS011;68830;47.566;19.012;2023-06-26T02:08:20;5.30;;;4.80;;
79361;SDS011;68830;47.566;19.012;2023-06-26T02:11:24;5.32;;;4.82;;
79361;SDS011;68830;47.566;19.012;2023-06-26T02:14:27;5.25;;;4.43;;
79361;SDS011;68830;47.566;19.012;2023-06-26T02:17:29;6.18;;;5.13;;
79361;SDS011;68830;47.566;19.012;2023-06-26T02:20:32;6.00;;;5.40;;
79361;SDS011;68830;47.566;19.012;2023-06-26T02:23:34;6.85;;;5.20;;
79361;SDS011;68830;47.566;19.012;2023-06-26T02:26:37;6.22;;;5.07;;
79361;SDS011;68830;47.566;19.012;2023-06-26T02:29:40;7.88;;;5.50;;
79361;SDS011;68830;47.566;19.012;2023-06-26T02:32:42;5.53;;;5.00;;
79361;SDS011;68830;47.566;19.012;2023-06-26T02:35:45;7.07;;;5.10;;
79361;SDS011;68830;47.566;19.012;2023-06-26T02:38:47;6.63;;;5.53;;
79361;SDS011;68830;47.566;19.012;2023-06-26T02:41:49;5.57;;;5.07;;
79361;SDS011;68830;47.566;19.012;2023-06-26T02:44:52;5.65;;;4.78;;
79361;SDS011;68830;47.566;19.012;2023-06-26T02:47:54;10.90;;;5.25;;
79361;SDS011;68830;47.566;19.012;2023-06-26T02:50:57;5.47;;;4.70;;
79361;SDS011;68830;47.566;19.012;2023-06-26T02:53:59;5.65;;;5.15;;
79361;SDS011;68830;47.566;19.012;2023-06-26T02:57:01;7.05;;;5.05;;
79361;SDS011;68830;47.566;19.012;2023-06-26T03:00:04;8.75;;;5.53;;
79361;SDS011;68830;47.566;19.012;2023-06-26T03:03:10;5.22;;;4.55;;
79361;SDS011;68830;47.566;19.012;2023-06-26T03:06:11;6.53;;;5.93;;
79361;SDS011;68830;47.566;19.012;2023-06-26T03:09:14;6.00;;;4.75;;
79361;SDS011;68830;47.566;19.012;2023-06-26T03:12:16;6.20;;;5.55;;
79361;SDS011;68830;47.566;19.012;2023-06-26T03:15:20;6.68;;;5.00;;
79361;SDS011;68830;47.566;19.012;2023-06-26T03:18:22;6.20;;;5.60;;
79361;SDS011;68830;47.566;19.012;2023-06-26T03:21:25;6.38;;;5.78;;
79361;SDS011;68830;47.566;19.012;2023-06-26T03:24:27;6.70;;;5.78;;
79361;SDS011;68830;47.566;19.012;2023-06-26T03:27:28;5.75;;;5.15;;
79361;SDS011;68830;47.566;19.012;2023-06-26T03:30:32;6.22;;;5.65;;
79361;SDS011;68830;47.566;19.012;2023-06-26T03:33:34;5.90;;;5.30;;
79361;SDS011;68830;47.566;19.012;2023-06-26T03:36:37;7.40;;;5.68;;
79361;SDS011;68830;47.566;19.012;2023-06-26T03:39:38;6.00;;;5.32;;
79361;SDS011;68830;47.566;19.012;2023-06-26T03:42:41;5.00;;;4.43;;
79361;SDS011;68830;47.566;19.012;2023-06-26T03:45:45;8.35;;;5.45;;
79361;SDS011;68830;47.566;19.012;2023-06-26T03:48:48;5.45;;;4.95;;
79361;SDS011;68830;47.566;19.012;2023-06-26T03:51:50;6.65;;;5.18;;
79361;SDS011;68830;47.566;19.012;2023-06-26T03:54:52;5.70;;;5.20;;
79361;SDS011;68830;47.566;19.012;2023-06-26T03:57:54;6.40;;;5.80;;
79361;SDS011;68830;47.566;19.012;2023-06-26T04:00:57;6.22;;;5.50;;
79361;SDS011;68830;47.566;19.012;2023-06-26T04:04:00;5.30;;;4.80;;
79361;SDS011;68830;47.566;19.012;2023-06-26T04:07:01;7.53;;;5.22;;
79361;SDS011;68830;47.566;19.012;2023-06-26T04:10:04;5.90;;;5.30;;
79361;SDS011;68830;47.566;19.012;2023-06-26T04:13:07;6.38;;;5.65;;
79361;SDS011;68830;47.566;19.012;2023-06-26T04:16:10;5.88;;;4.80;;
79361;SDS011;68830;47.566;19.012;2023-06-26T04:19:14;6.22;;;5.63;;
79361;SDS011;68830;47.566;19.012;2023-06-26T04:22:16;7.53;;;5.43;;
79361;SDS011;68830;47.566;19.012;2023-06-26T04:25:18;6.60;;;5.57;;
79361;SDS011;68830;47.566;19.012;2023-06-26T04:28:20;5.93;;;5.32;;
79361;SDS011;68830;47.566;19.012;2023-06-26T04:31:24;5.35;;;4.85;;
79361;SDS011;68830;47.566;19.012;2023-06-26T04:34:27;5.75;;;5.25;;
79361;SDS011;68830;47.566;19.012;2023-06-26T04:37:29;5.97;;;4.97;;
79361;SDS011;68830;47.566;19.012;2023-06-26T04:40:31;8.15;;;6.70;;
79361;SDS011;68830;47.566;19.012;2023-06-26T04:43:33;5.00;;;4.50;;
79361;SDS011;68830;47.566;19.012;2023-06-26T04:46:37;5.50;;;4.75;;
79361;SDS011;68830;47.566;19.012;2023-06-26T04:49:42;6.78;;;5.75;;
79361;SDS011;68830;47.566;19.012;2023-06-26T04:52:53;5.28;;;4.78;;
79361;SDS011;68830;47.566;19.012;2023-06-26T04:55:55;5.38;;;4.63;;
79361;SDS011;68830;47.566;19.012;2023-06-26T04:58:57;5.70;;;5.10;;
79361;SDS011;68830;47.566;19.012;2023-06-26T05:02:01;5.22;;;4.72;;
79361;SDS011;68830;47.566;19.012;2023-06-26T05:05:04;5.78;;;5.25;;
79361;SDS011;68830;47.566;19.012;2023-06-26T05:08:16;5.70;;;5.00;;
79361;SDS011;68830;47.566;19.012;2023-06-26T05:11:18;6.57;;;5.93;;
79361;SDS011;68830;47.566;19.012;2023-06-26T05:14:20;9.43;;;6.10;;
79361;SDS011;68830;47.566;19.012;2023-06-26T05:17:27;6.63;;;4.68;;
79361;SDS011;68830;47.566;19.012;2023-06-26T05:20:29;6.25;;;5.30;;
79361;SDS011;68830;47.566;19.012;2023-06-26T05:23:33;5.55;;;4.47;;
79361;SDS011;68830;47.566;19.012;2023-06-26T05:26:36;4.95;;;4.45;;
79361;SDS011;68830;47.566;19.012;2023-06-26T05:29:39;5.93;;;5.38;;
79361;SDS011;68830;47.566;19.012;2023-06-26T05:32:42;4.50;;;4.10;;
79361;SDS011;68830;47.566;19.012;2023-06-26T05:35:48;4.60;;;4.05;;
79361;SDS011;68830;47.566;19.012;2023-06-26T05:38:53;6.50;;;5.68;;
79361;SDS011;68830;47.566;19.012;2023-06-26T05:41:58;5.47;;;4.03;;
79361;SDS011;68830;47.566;19.012;2023-06-26T05:45:00;6.38;;;5.53;;
79361;SDS011;68830;47.566;19.012;2023-06-26T05:48:04;6.55;;;4.72;;
79361;SDS011;68830;47.566;19.012;2023-06-26T05:51:07;5.82;;;5.20;;
79361;SDS011;68830;47.566;19.012;2023-06-26T05:54:10;4.85;;;4.45;;
79361;SDS011;68830;47.566;19.012;2023-06-26T05:57:14;4.82;;;4.22;;
79361;SDS011;68830;47.566;19.012;2023-06-26T06:00:18;9.38;;;5.72;;
79361;SDS011;68830;47.566;19.012;2023-06-26T06:03:21;5.32;;;4.82;;
79361;SDS011;68830;47.566;19.012;2023-06-26T06:06:25;5.82;;;4.53;;
79361;SDS011;68830;47.566;19.012;2023-06-26T06:09:27;5.85;;;5.25;;
79361;SDS011;68830;47.566;19.012;2023-06-26T06:12:29;5.72;;;5.18;;
79361;SDS011;68830;47.566;19.012;2023-06-26T06:15:31;5.95;;;5.38;;
79361;SDS011;68830;47.566;19.012;2023-06-26T06:18:34;5.72;;;5.15;;
79361;SDS011;68830;47.566;19.012;2023-06-26T06:21:37;6.07;;;5.22;;
79361;SDS011;68830;47.566;19.012;2023-06-26T06:24:39;5.82;;;5.25;;
79361;SDS011;68830;47.566;19.012;2023-06-26T06:27:41;5.70;;;5.10;;
79361;SDS011;68830;47.566;19.012;2023-06-26T06:30:44;6.20;;;5.35;;
79361;SDS011;68830;47.566;19.012;2023-06-26T06:33:50;4.72;;;4.32;;
79361;SDS011;68830;47.566;19.012;2023-06-26T06:36:52;6.05;;;4.60;;
79361;SDS011;68830;47.566;19.012;2023-06-26T06:39:54;5.25;;;4.70;;
79361;SDS011;68830;47.566;19.012;2023-06-26T06:42:56;4.30;;;3.90;;
79361;SDS011;68830;47.566;19.012;2023-06-26T06:45:58;4.70;;;4.13;;
79361;SDS011;68830;47.566;19.012;2023-06-26T06:49:01;3.75;;;3.38;;
79361;SDS011;68830;47.566;19.012;2023-06-26T06:52:03;7.45;;;4.70;;
79361;SDS011;68830;47.566;19.012;2023-06-26T06:55:07;5.30;;;4.35;;
79361;SDS011;68830;47.566;19.012;2023-06-26T06:58:12;4.80;;;4.30;;
79361;SDS011;68830;47.566;19.012;2023-06-26T07:01:15;4.50;;;3.72;;
79361;SDS011;68830;47.566;19.012;2023-06-26T07:04:18;4.90;;;4.40;;
79361;SDS011;68830;47.566;19.012;2023-06-26T07:07:21;4.95;;;4.30;;
79361;SDS011;68830;47.566;19.012;2023-06-26T07:10:23;4.70;;;4.30;;
79361;SDS011;68830;47.566;19.012;2023-06-26T07:13:25;6.68;;;5.13;;
79361;SDS011;68830;47.566;19.012;2023-06-26T07:16:28;4.82;;;3.83;;
79361;SDS011;68830;47.566;19.012;2023-06-26T07:19:32;4.38;;;3.97;;
79361;SDS011;68830;47.566;19.012;2023-06-26T07:22:34;4.65;;;4.25;;
79361;SDS011;68830;47.566;19.012;2023-06-26T07:25:36;4.70;;;4.22;;
79361;SDS011;68830;47.566;19.012;2023-06-26T07:28:38;5.35;;;4.05;;
79361;SDS011;68830;47.566;19.012;2023-06-26T07:31:41;5.05;;;4.55;;
79361;SDS011;68830;47.566;19.012;2023-06-26T07:34:45;4.32;;;3.92;;
79361;SDS011;68830;47.566;19.012;2023-06-26T07:37:47;4.88;;;3.97;;
79361;SDS011;68830;47.566;19.012;2023-06-26T07:40:49;7.15;;;5.00;;
79361;SDS011;68830;47.566;19.012;2023-06-26T07:43:51;4.63;;;4.20;;
79361;SDS011;68830;47.566;19.012;2023-06-26T07:46:53;4.93;;;4.07;;
79361;SDS011;68830;47.566;19.012;2023-06-26T07:49:56;4.93;;;4.43;;
79361;SDS011;68830;47.566;19.012;2023-06-26T07:52:58;5.30;;;4.25;;
79361;SDS011;68830;47.566;19.012;2023-06-26T07:56:00;5.07;;;4.10;;
79361;SDS011;68830;47.566;19.012;2023-06-26T07:59:03;5.38;;;4.88;;
79361;SDS011;68830;47.566;19.012;2023-06-26T08:02:05;7.10;;;4.82;;
79361;SDS011;68830;47.566;19.012;2023-06-26T08:05:09;4.88;;;4.45;;
79361;SDS011;68830;47.566;19.012;2023-06-26T08:08:12;6.22;;;5.07;;
79361;SDS011;68830;47.566;19.012;2023-06-26T08:11:14;6.40;;;4.63;;
79361;SDS011;68830;47.566;19.012;2023-06-26T08:14:17;5.15;;;4.57;;
79361;SDS011;68830;47.566;19.012;2023-06-26T08:17:20;5.03;;;4.45;;
79361;SDS011;68830;47.566;19.012;2023-06-26T08:20:23;6.18;;;4.82;;
79361;SDS011;68830;47.566;19.012;2023-06-26T08:23:25;4.95;;;4.40;;
79361;SDS011;68830;47.566;19.012;2023-06-26T08:26:27;5.63;;;4.78;;
79361;SDS011;68830;47.566;19.012;2023-06-26T08:29:30;4.50;;;3.92;;
79361;SDS011;68830;47.566;19.012;2023-06-26T08:32:32;4.85;;;4.35;;
79361;SDS011;68830;47.566;19.012;2023-06-26T08:35:35;6.53;;;4.75;;
79361;SDS011;68830;47.566;19.012;2023-06-26T08:38:37;5.38;;;4.65;;
79361;SDS011;68830;47.566;19.012;2023-06-26T08:41:42;4.38;;;3.97;;
79361;SDS011;68830;47.566;19.012;2023-06-26T08:44:44;4.80;;;4.40;;
79361;SDS011;68830;47.566;19.012;2023-06-26T08:48:02;5.70;;;5.15;;
79361;SDS011;68830;47.566;19.012;2023-06-26T08:51:11;5.05;;;4.25;;
79361;SDS011;68830;47.566;19.012;2023-06-26T08:54:15;4.88;;;4.38;;
79361;SDS011;68830;47.566;19.012;2023-06-26T08:57:23;4.78;;;4.30;;
79361;SDS011;68830;47.566;19.012;2023-06-26T09:00:28;5.00;;;4.50;;
79361;SDS011;68830;47.566;19.012;2023-06-26T09:03:30;4.65;;;4.25;;
79361;SDS011;68830;47.566;19.012;2023-06-26T09:06:34;7.70;;;5.60;;
79361;SDS011;68830;47.566;19.012;2023-06-26T09:09:37;4.97;;;4.47;;
79361;SDS011;68830;47.566;19.012;2023-06-26T09:12:39;5.10;;;4.60;;
79361;SDS011;68830;47.566;19.012;2023-06-26T09:15:41;4.70;;;4.25;;
79361;SDS011;68830;47.566;19.012;2023-06-26T09:18:45;6.85;;;4.13;;
79361;SDS011;68830;47.566;19.012;2023-06-26T09:21:50;5.07;;;4.57;;
79361;SDS011;68830;47.566;19.012;2023-06-26T09:24:55;5.03;;;4.53;;
79361;SDS011;68830;47.566;19.012;2023-06-26T09:27:58;5.13;;;4.63;;
79361;SDS011;68830;47.566;19.012;2023-06-26T09:31:01;4.53;;;4.13;;
79361;SDS011;68830;47.566;19.012;2023-06-26T09:34:08;4.70;;;4.20;;
79361;SDS011;68830;47.566;19.012;2023-06-26T09:37:12;8.20;;;5.03;;
79361;SDS011;68830;47.566;19.012;2023-06-26T09:40:17;4.50;;;4.10;;
79361;SDS011;68830;47.566;19.012;2023-06-26T09:43:20;4.15;;;3.75;;
79361;SDS011;68830;47.566;19.012;2023-06-26T09:46:25;5.15;;;4.65;;
79361;SDS011;68830;47.566;19.012;2023-06-26T09:49:28;4.28;;;3.88;;
79361;SDS011;68830;47.566;19.012;2023-06-26T09:52:31;4.38;;;3.97;;
79361;SDS011;68830;47.566;19.012;2023-06-26T09:55:34;4.78;;;4.38;;
79361;SDS011;68830;47.566;19.012;2023-06-26T09:58:36;4.82;;;4.40;;
79361;SDS011;68830;47.566;19.012;2023-06-26T10:01:39;4.60;;;4.20;;
79361;SDS011;68830;47.566;19.012;2023-06-26T10:04:43;6.88;;;3.75;;
79361;SDS011;68830;47.566;19.012;2023-06-26T10:07:46;4.80;;;3.55;;
79361;SDS011;68830;47.566;19.012;2023-06-26T10:10:50;6.70;;;4.47;;
79361;SDS011;68830;47.566;19.012;2023-06-26T10:13:53;3.80;;;3.40;;
79361;SDS011;68830;47.566;19.012;2023-06-26T10:17:18;4.28;;;3.60;;
79361;SDS011;68830;47.566;19.012;2023-06-26T10:20:24;4.40;;;4.00;;
79361;SDS011;68830;47.566;19.012;2023-06-26T10:23:30;5.07;;;4.25;;
79361;SDS011;68830;47.566;19.012;2023-06-26T10:26:33;6.07;;;4.07;;
79361;SDS011;68830;47.566;19.012;2023-06-26T10:29:39;4.50;;;4.10;;
79361;SDS011;68830;47.566;19.012;2023-06-26T10:32:43;4.85;;;3.83;;
79361;SDS011;68830;47.566;19.012;2023-06-26T10:35:45;4.20;;;3.80;;
79361;SDS011;68830;47.566;19.012;2023-06-26T10:38:49;7.07;;;4.40;;
79361;SDS011;68830;47.566;19.012;2023-06-26T10:41:53;4.15;;;3.47;;
79361;SDS011;68830;47.566;19.012;2023-06-26T10:45:09;4.50;;;4.10;;
79361;SDS011;68830;47.566;19.012;2023-06-26T10:48:15;5.88;;;4.13;;
79361;SDS011;68830;47.566;19.012;2023-06-26T10:51:18;4.55;;;4.15;;
79361;SDS011;68830;47.566;19.012;2023-06-26T10:54:21;4.68;;;4.00;;
79361;SDS011;68830;47.566;19.012;2023-06-26T10:57:24;4.45;;;4.03;;
79361;SDS011;68830;47.566;19.012;2023-06-26T11:00:26;4.10;;;3.70;;
79361;SDS011;68830;47.566;19.012;2023-06-26T11:03:29;4.07;;;3.67;;
79361;SDS011;68830;47.566;19.012;2023-06-26T11:06:33;3.53;;;3.22;;
79361;SDS011;68830;47.566;19.012;2023-06-26T11:09:38;3.30;;;3.00;;
79361;SDS011;68830;47.566;19.012;2023-06-26T11:12:55;4.68;;;4.03;;
79361;SDS011;68830;47.566;19.012;2023-06-26T11:15:59;4.05;;;3.50;;
79361;SDS011;68830;47.566;19.012;2023-06-26T11:19:03;4.15;;;3.53;;
79361;SDS011;68830;47.566;19.012;2023-06-26T11:22:05;3.65;;;3.30;;
79361;SDS011;68830;47.566;19.012;2023-06-26T11:25:09;4.03;;;3.58;;
79361;SDS011;68830;47.566;19.012;2023-06-26T11:28:12;4.00;;;3.58;;
79361;SDS011;68830;47.566;19.012;2023-06-26T11:31:23;3.88;;;3.58;;
79361;SDS011;68830;47.566;19.012;2023-06-26T11:34:29;3.38;;;3.08;;
79361;SDS011;68830;47.566;19.012;2023-06-26T11:40:35;3.50;;;3.20;;
79361;SDS011;68830;47.566;19.012;2023-06-26T11:43:39;4.07;;;3.65;;
79361;SDS011;68830;47.566;19.012;2023-06-26T11:46:42;3.80;;;3.40;;
79361;SDS011;68830;47.566;19.012;2023-06-26T11:49:44;3.65;;;3.20;;
79361;SDS011;68830;47.566;19.012;2023-06-26T11:52:52;4.32;;;3.85;;
79361;SDS011;68830;47.566;19.012;2023-06-26T11:55:56;4.05;;;3.65;;
79361;SDS011;68830;47.566;19.012;2023-06-26T11:58:59;4.07;;;3.75;;
79361;SDS011;68830;47.566;19.012;2023-06-26T12:02:05;4.35;;;3.95;;
79361;SDS011;68830;47.566;19.012;2023-06-26T12:05:08;4.07;;;3.05;;
79361;SDS011;68830;47.566;19.012;2023-06-26T12:08:11;4.65;;;4.07;;
79361;SDS011;68830;47.566;19.012;2023-06-26T12:11:15;4.05;;;3.03;;
79361;SDS011;68830;47.566;19.012;2023-06-26T12:14:19;4.90;;;3.45;;
79361;SDS011;68830;47.566;19.012;2023-06-26T12:17:23;3.75;;;3.35;;
79361;SDS011;68830;47.566;19.012;2023-06-26T12:20:28;3.95;;;3.65;;
79361;SDS011;68830;47.566;19.012;2023-06-26T12:23:38;4.22;;;3.83;;
79361;SDS011;68830;47.566;19.012;2023-06-26T12:26:43;3.78;;;3.47;;
79361;SDS011;68830;47.566;19.012;2023-06-26T12:29:50;3.28;;;2.97;;
79361;SDS011;68830;47.566;19.012;2023-06-26T12:32:54;3.72;;;3.40;;
79361;SDS011;68830;47.566;19.012;2023-06-26T12:35:57;3.55;;;3.25;;
79361;SDS011;68830;47.566;19.012;2023-06-26T12:39:00;3.88;;;3.30;;
79361;SDS011;68830;47.566;19.012;2023-06-26T12:42:04;3.67;;;3.35;;
79361;SDS011;68830;47.566;19.012;2023-06-26T12:45:10;3.55;;;3.25;;
79361;SDS011;68830;47.566;19.012;2023-06-26T12:48:37;6.65;;;3.97;;
79361;SDS011;68830;47.566;19.012;2023-06-26T12:51:40;5.93;;;3.63;;
79361;SDS011;68830;47.566;19.012;2023-06-26T12:54:43;3.75;;;3.17;;
79361;SDS011;68830;47.566;19.012;2023-06-26T12:57:46;4.28;;;3.85;;
79361;SDS011;68830;47.566;19.012;2023-06-26T13:00:48;4.00;;;3.65;;
79361;SDS011;68830;47.566;19.012;2023-06-26T13:03:50;3.47;;;3.10;;
79361;SDS011;68830;47.566;19.012;2023-06-26T13:06:53;3.80;;;3.25;;
79361;SDS011;68830;47.566;19.012;2023-06-26T13:09:58;3.50;;;3.17;;
79361;SDS011;68830;47.566;19.012;2023-06-26T13:13:01;3.30;;;3.00;;
79361;SDS011;68830;47.566;19.012;2023-06-26T13:16:05;4.57;;;3.50;;
79361;SDS011;68830;47.566;19.012;2023-06-26T13:19:07;4.72;;;4.22;;
79361;SDS011;68830;47.566;19.012;2023-06-26T13:22:10;4.13;;;3.72;;
79361;SDS011;68830;47.566;19.012;2023-06-26T13:25:12;4.20;;;3.80;;
79361;SDS011;68830;47.566;19.012;2023-06-26T13:28:16;4.88;;;3.85;;
79361;SDS011;68830;47.566;19.012;2023-06-26T13:31:18;4.45;;;3.70;;
79361;SDS011;68830;47.566;19.012;2023-06-26T13:34:21;4.82;;;4.32;;
79361;SDS011;68830;47.566;19.012;2023-06-26T13:37:25;4.05;;;3.63;;
79361;SDS011;68830;47.566;19.012;2023-06-26T13:40:27;5.53;;;3.95;;
79361;SDS011;68830;47.566;19.012;2023-06-26T13:43:32;4.78;;;4.05;;
79361;SDS011;68830;47.566;19.012;2023-06-26T13:46:34;4.32;;;3.83;;
79361;SDS011;68830;47.566;19.012;2023-06-26T13:49:37;4.53;;;4.13;;
79361;SDS011;68830;47.566;19.012;2023-06-26T13:52:39;4.63;;;3.90;;
79361;SDS011;68830;47.566;19.012;2023-06-26T13:55:41;4.13;;;3.20;;
79361;SDS011;68830;47.566;19.012;2023-06-26T13:58:45;4.22;;;3.38;;
79361;SDS011;68830;47.566;19.012;2023-06-26T14:01:46;4.93;;;3.28;;
79361;SDS011;68830;47.566;19.012;2023-06-26T14:04:49;6.65;;;3.75;;
79361;SDS011;68830;47.566;19.012;2023-06-26T14:07:51;3.65;;;3.35;;
79361;SDS011;68830;47.566;19.012;2023-06-26T14:10:55;4.13;;;3.55;;
79361;SDS011;68830;47.566;19.012;2023-06-26T14:13:59;4.10;;;3.35;;
79361;SDS011;68830;47.566;19.012;2023-06-26T14:17:00;3.70;;;3.33;;
79361;SDS011;68830;47.566;19.012;2023-06-26T14:20:03;3.70;;;3.35;;
79361;SDS011;68830;47.566;19.012;2023-06-26T14:23:14;4.13;;;3.72;;
79361;SDS011;68830;47.566;19.012;2023-06-26T14:26:16;4.47;;;4.07;;
79361;SDS011;68830;47.566;19.012;2023-06-26T14:29:19;3.35;;;3.05;;
79361;SDS011;68830;47.566;19.012;2023-06-26T14:32:22;3.83;;;3.42;;
79361;SDS011;68830;47.566;19.012;2023-06-26T14:35:25;3.60;;;3.28;;
79361;SDS011;68830;47.566;19.012;2023-06-26T14:38:27;3.30;;;3.00;;
79361;SDS011;68830;47.566;19.012;2023-06-26T14:41:29;7.43;;;4.05;;
79361;SDS011;68830;47.566;19.012;2023-06-26T14:44:33;3.88;;;3.17;;
79361;SDS011;68830;47.566;19.012;2023-06-26T14:47:35;6.03;;;3.85;;
79361;SDS011;68830;47.566;19.012;2023-06-26T14:50:37;3.38;;;3.03;;
79361;SDS011;68830;47.566;19.012;2023-06-26T14:53:40;3.90;;;3.33;;
79361;SDS011;68830;47.566;19.012;2023-06-26T14:56:42;4.05;;;3.20;;
79361;SDS011;68830;47.566;19.012;2023-06-26T14:59:47;3.42;;;2.88;;
79361;SDS011;68830;47.566;19.012;2023-06-26T15:02:49;4.28;;;3.13;;
79361;SDS011;68830;47.566;19.012;2023-06-26T15:05:58;3.75;;;3.42;;
79361;SDS011;68830;47.566;19.012;2023-06-26T15:09:00;3.38;;;3.08;;
79361;SDS011;68830;47.566;19.012;2023-06-26T15:12:03;4.20;;;3.30;;
79361;SDS011;68830;47.566;19.012;2023-06-26T15:15:08;4.53;;;2.78;;
79361;SDS011;68830;47.566;19.012;2023-06-26T15:18:11;3.17;;;2.88;;
79361;SDS011;68830;47.566;19.012;2023-06-26T15:21:13;5.78;;;3.15;;
79361;SDS011;68830;47.566;19.012;2023-06-26T15:24:15;3.30;;;2.92;;
79361;SDS011;68830;47.566;19.012;2023-06-26T15:27:17;5.68;;;2.97;;
79361;SDS011;68830;47.566;19.012;2023-06-26T15:30:20;3.28;;;2.92;;
79361;SDS011;68830;47.566;19.012;2023-06-26T15:33:22;3.97;;;2.97;;
79361;SDS011;68830;47.566;19.012;2023-06-26T15:36:25;3.55;;;3.00;;
79361;SDS011;68830;47.566;19.012;2023-06-26T15:39:27;3.45;;;3.15;;
79361;SDS011;68830;47.566;19.012;2023-06-26T15:42:29;3.25;;;2.95;;
79361;SDS011;68830;47.566;19.012;2023-06-26T15:45:32;5.10;;;3.05;;
79361;SDS011;68830;47.566;19.012;2023-06-26T15:48:34;3.42;;;2.95;;
79361;SDS011;68830;47.566;19.012;2023-06-26T15:51:38;7.00;;;3.30;;
79361;SDS011;68830;47.566;19.012;2023-06-26T15:54:40;5.53;;;3.05;;
79361;SDS011;68830;47.566;19.012;2023-06-26T15:57:42;6.50;;;2.90;;
79361;SDS011;68830;47.566;19.012;2023-06-26T16:00:45;4.15;;;3.22;;
79361;SDS011;68830;47.566;19.012;2023-06-26T16:03:47;3.13;;;2.83;;
79361;SDS011;68830;47.566;19.012;2023-06-26T16:06:50;3.85;;;3.03;;
79361;SDS011;68830;47.566;19.012;2023-06-26T16:09:52;3.58;;;3.10;;
79361;SDS011;68830;47.566;19.012;2023-06-26T16:12:55;3.33;;;3.00;;
79361;SDS011;68830;47.566;19.012;2023-06-26T16:15:58;3.15;;;2.83;;
79361;SDS011;68830;47.566;19.012;2023-06-26T16:19:01;6.45;;;3.28;;
79361;SDS011;68830;47.566;19.012;2023-06-26T16:22:05;3.80;;;3.47;;
79361;SDS011;68830;47.566;19.012;2023-06-26T16:25:08;3.20;;;2.90;;
79361;SDS011;68830;47.566;19.012;2023-06-26T16:28:10;7.15;;;3.30;;
79361;SDS011;68830;47.566;19.012;2023-06-26T16:31:17;4.60;;;3.85;;
79361;SDS011;68830;47.566;19.012;2023-06-26T16:34:22;3.70;;;3.20;;
79361;SDS011;68830;47.566;19.012;2023-06-26T16:37:24;4.18;;;3.47;;
79361;SDS011;68830;47.566;19.012;2023-06-26T16:40:26;3.50;;;3.00;;
79361;SDS011;68830;47.566;19.012;2023-06-26T16:43:29;3.42;;;3.13;;
79361;SDS011;68830;47.566;19.012;2023-06-26T16:46:32;3.55;;;3.25;;
79361;SDS011;68830;47.566;19.012;2023-06-26T16:49:35;3.50;;;3.20;;
79361;SDS011;68830;47.566;19.012;2023-06-26T16:52:37;7.78;;;3.40;;
79361;SDS011;68830;47.566;19.012;2023-06-26T16:55:40;4.28;;;3.58;;
79361;SDS011;68830;47.566;19.012;2023-06-26T16:58:42;4.80;;;3.88;;
79361;SDS011;68830;47.566;19.012;2023-06-26T17:01:45;4.10;;;3.70;;
79361;SDS011;68830;47.566;19.012;2023-06-26T17:04:47;4.53;;;3.47;;
79361;SDS011;68830;47.566;19.012;2023-06-26T17:07:50;4.88;;;3.50;;
79361;SDS011;68830;47.566;19.012;2023-06-26T17:10:52;3.95;;;3.33;;
79361;SDS011;68830;47.566;19.012;2023-06-26T17:13:54;4.60;;;3.97;;
79361;SDS011;68830;47.566;19.012;2023-06-26T17:16:57;4.25;;;3.72;;
79361;SDS011;68830;47.566;19.012;2023-06-26T17:20:00;4.55;;;3.83;;
79361;SDS011;68830;47.566;19.012;2023-06-26T17:23:05;3.65;;;2.97;;
79361;SDS011;68830;47.566;19.012;2023-06-26T17:26:08;4.82;;;3.95;;
79361;SDS011;68830;47.566;19.012;2023-06-26T17:29:10;4.85;;;3.83;;
79361;SDS011;68830;47.566;19.012;2023-06-26T17:32:13;5.07;;;4.57;;
79361;SDS011;68830;47.566;19.012;2023-06-26T17:35:23;6.50;;;4.63;;
79361;SDS011;68830;47.566;19.012;2023-06-26T17:38:26;5.25;;;4.40;;
79361;SDS011;68830;47.566;19.012;2023-06-26T17:41:29;4.53;;;4.07;;
79361;SDS011;68830;47.566;19.012;2023-06-26T17:44:30;4.28;;;3.78;;
79361;SDS011;68830;47.566;19.012;2023-06-26T17:47:34;6.55;;;4.38;;
79361;SDS011;68830;47.566;19.012;2023-06-26T17:50:36;4.38;;;3.92;;
79361;SDS011;68830;47.566;19.012;2023-06-26T17:53:38;5.57;;;4.10;;
79361;SDS011;68830;47.566;19.012;2023-06-26T17:56:40;4.65;;;3.85;;
79361;SDS011;68830;47.566;19.012;2023-06-26T17:59:44;4.00;;;3.60;;
79361;SDS011;68830;47.566;19.012;2023-06-26T18:02:48;7.07;;;4.40;;
79361;SDS011;68830;47.566;19.012;2023-06-26T18:08:53;3.88;;;3.25;;
79361;SDS011;68830;47.566;19.012;2023-06-26T18:11:54;4.82;;;4.43;;
79361;SDS011;68830;47.566;19.012;2023-06-26T18:14:56;3.85;;;3.35;;